sensor_id;sensor_type;location;lat;lon;timestamp;pressure;altitude;pressure_sealevel;temperature;humidity
62976;BME280;49071;0.000;0.000;2023-12-28T00:01:48;100653.41;;;17.84;
62976;BME280;49071;0.000;0.000;2023-12-28T00:04:50;100654.50;;;17.82;
62976;BME280;49071;0.000;0.000;2023-12-28T00:07:50;100658.19;;;17.79;
62976;BME280;49071;0.000;0.000;2023-12-28T00:10:56;100660.06;;;17.77;
62976;BME280;49071;0.000;0.000;2023-12-28T00:13:57;100645.44;;;17.75;
62976;BME280;49071;0.000;0.000;2023-12-28T00:16:57;100650.81;;;17.73;
62976;BME280;49071;0.000;0.000;2023-12-28T00:19:57;100650.91;;;17.72;
62976;BME280;49071;0.000;0.000;2023-12-28T00:22:57;100646.75;;;17.69;
62976;BME280;49071;0.000;0.000;2023-12-28T00:25:58;100636.53;;;17.66;
62976;BME280;49071;0.000;0.000;2023-12-28T00:28:58;100639.25;;;17.65;
62976;BME280;49071;0.000;0.000;2023-12-28T00:31:58;100630.66;;;17.63;
62976;BME280;49071;0.000;0.000;2023-12-28T00:34:59;100609.16;;;17.59;
62976;BME280;49071;0.000;0.000;2023-12-28T00:37:59;100599.78;;;17.57;
62976;BME280;49071;0.000;0.000;2023-12-28T00:41:00;100599.06;;;17.55;
62976;BME280;49071;0.000;0.000;2023-12-28T00:44:00;100586.06;;;17.54;
62976;BME280;49071;0.000;0.000;2023-12-28T00:47:01;100585.38;;;17.52;
62976;BME280;49071;0.000;0.000;2023-12-28T00:50:02;100593.44;;;17.49;
62976;BME280;49071;0.000;0.000;2023-12-28T00:53:02;100592.63;;;17.48;
62976;BME280;49071;0.000;0.000;2023-12-28T00:56:02;100579.41;;;17.50;
62976;BME280;49071;0.000;0.000;2023-12-28T00:59:02;100583.22;;;17.57;
62976;BME280;49071;0.000;0.000;2023-12-28T01:02:03;100589.66;;;17.63;
62976;BME280;49071;0.000;0.000;2023-12-28T01:05:03;100576.13;;;17.69;
62976;BME280;49071;0.000;0.000;2023-12-28T01:08:04;100568.50;;;17.77;
62976;BME280;49071;0.000;0.000;2023-12-28T01:11:04;100562.78;;;17.83;
62976;BME280;49071;0.000;0.000;2023-12-28T01:14:04;100552.56;;;17.91;
62976;BME280;49071;0.000;0.000;2023-12-28T01:17:04;100559.78;;;17.98;
62976;BME280;49071;0.000;0.000;2023-12-28T01:20:05;100538.97;;;18.08;
62976;BME280;49071;0.000;0.000;2023-12-28T01:23:06;100547.75;;;18.17;
62976;BME280;49071;0.000;0.000;2023-12-28T01:26:06;100539.91;;;18.28;
62976;BME280;49071;0.000;0.000;2023-12-28T01:29:11;100534.59;;;18.39;
62976;BME280;49071;0.000;0.000;2023-12-28T01:32:12;100500.53;;;18.50;
62976;BME280;49071;0.000;0.000;2023-12-28T01:35:12;100500.03;;;18.56;
62976;BME280;49071;0.000;0.000;2023-12-28T01:38:12;100496.66;;;18.65;
62976;BME280;49071;0.000;0.000;2023-12-28T01:41:12;100500.41;;;18.72;
62976;BME280;49071;0.000;0.000;2023-12-28T01:44:13;100494.69;;;18.77;
62976;BME280;49071;0.000;0.000;2023-12-28T01:47:13;100478.69;;;18.80;
62976;BME280;49071;0.000;0.000;2023-12-28T01:50:14;100476.91;;;18.81;
62976;BME280;49071;0.000;0.000;2023-12-28T01:53:14;100483.09;;;18.80;
62976;BME280;49071;0.000;0.000;2023-12-28T01:56:14;100488.59;;;18.77;
62976;BME280;49071;0.000;0.000;2023-12-28T01:59:15;100481.09;;;18.73;
62976;BME280;49071;0.000;0.000;2023-12-28T02:02:15;100483.28;;;18.68;
62976;BME280;49071;0.000;0.000;2023-12-28T02:05:16;100484.53;;;18.64;
62976;BME280;49071;0.000;0.000;2023-12-28T02:08:16;100488.31;;;18.60;
62976;BME280;49071;0.000;0.000;2023-12-28T02:11:17;100485.38;;;18.53;
62976;BME280;49071;0.000;0.000;2023-12-28T02:14:18;100499.69;;;18.49;
62976;BME280;49071;0.000;0.000;2023-12-28T02:20:21;100496.03;;;18.41;
62976;BME280;49071;0.000;0.000;2023-12-28T02:23:22;100503.41;;;18.36;
62976;BME280;49071;0.000;0.000;2023-12-28T02:26:22;100478.44;;;18.32;
62976;BME280;49071;0.000;0.000;2023-12-28T02:29:23;100483.25;;;18.27;
62976;BME280;49071;0.000;0.000;2023-12-28T02:32:24;100478.50;;;18.21;
62976;BME280;49071;0.000;0.000;2023-12-28T02:35:42;100473.50;;;18.18;
62976;BME280;49071;0.000;0.000;2023-12-28T02:38:43;100470.41;;;18.14;
62976;BME280;49071;0.000;0.000;2023-12-28T02:41:44;100461.16;;;18.10;
62976;BME280;49071;0.000;0.000;2023-12-28T02:44:45;100483.19;;;18.07;
62976;BME280;49071;0.000;0.000;2023-12-28T02:47:45;100480.94;;;18.03;
62976;BME280;49071;0.000;0.000;2023-12-28T02:50:45;100461.97;;;17.99;
62976;BME280;49071;0.000;0.000;2023-12-28T02:53:46;100452.84;;;17.94;
62976;BME280;49071;0.000;0.000;2023-12-28T02:56:46;100453.91;;;17.91;
62976;BME280;49071;0.000;0.000;2023-12-28T02:59:46;100448.09;;;17.88;
62976;BME280;49071;0.000;0.000;2023-12-28T03:02:46;100458.81;;;17.85;
62976;BME280;49071;0.000;0.000;2023-12-28T03:05:47;100453.81;;;17.82;
62976;BME280;49071;0.000;0.000;2023-12-28T03:08:47;100475.84;;;17.80;
62976;BME280;49071;0.000;0.000;2023-12-28T03:11:47;100475.00;;;17.79;
62976;BME280;49071;0.000;0.000;2023-12-28T03:14:47;100470.34;;;17.83;
62976;BME280;49071;0.000;0.000;2023-12-28T03:17:47;100479.75;;;17.85;
62976;BME280;49071;0.000;0.000;2023-12-28T03:20:47;100472.34;;;17.90;
62976;BME280;49071;0.000;0.000;2023-12-28T03:23:47;100471.88;;;17.96;
62976;BME280;49071;0.000;0.000;2023-12-28T03:26:48;100481.06;;;18.01;
62976;BME280;49071;0.000;0.000;2023-12-28T03:29:48;100460.44;;;18.08;
62976;BME280;49071;0.000;0.000;2023-12-28T03:32:48;100473.75;;;18.16;
62976;BME280;49071;0.000;0.000;2023-12-28T03:35:48;100460.59;;;18.26;
62976;BME280;49071;0.000;0.000;2023-12-28T03:38:48;100465.94;;;18.36;
62976;BME280;49071;0.000;0.000;2023-12-28T03:41:49;100466.97;;;18.44;
62976;BME280;49071;0.000;0.000;2023-12-28T03:44:49;100464.19;;;18.56;
62976;BME280;49071;0.000;0.000;2023-12-28T03:47:49;100471.41;;;18.64;
62976;BME280;49071;0.000;0.000;2023-12-28T03:50:51;100462.75;;;18.73;
62976;BME280;49071;0.000;0.000;2023-12-28T03:53:51;100439.38;;;18.80;
62976;BME280;49071;0.000;0.000;2023-12-28T03:56:51;100436.84;;;18.90;
62976;BME280;49071;0.000;0.000;2023-12-28T03:59:51;100431.78;;;18.98;
62976;BME280;49071;0.000;0.000;2023-12-28T04:02:53;100446.88;;;19.05;
62976;BME280;49071;0.000;0.000;2023-12-28T04:05:53;100445.06;;;19.05;
62976;BME280;49071;0.000;0.000;2023-12-28T04:08:54;100442.59;;;19.04;
62976;BME280;49071;0.000;0.000;2023-12-28T04:11:54;100449.88;;;19.01;
62976;BME280;49071;0.000;0.000;2023-12-28T04:14:54;100447.78;;;18.95;
62976;BME280;49071;0.000;0.000;2023-12-28T04:17:54;100453.53;;;18.89;
62976;BME280;49071;0.000;0.000;2023-12-28T04:20:54;100450.56;;;18.82;
62976;BME280;49071;0.000;0.000;2023-12-28T04:23:55;100452.03;;;18.75;
62976;BME280;49071;0.000;0.000;2023-12-28T04:26:55;100459.47;;;18.71;
62976;BME280;49071;0.000;0.000;2023-12-28T04:29:55;100466.84;;;18.66;
62976;BME280;49071;0.000;0.000;2023-12-28T04:32:55;100469.16;;;18.59;
62976;BME280;49071;0.000;0.000;2023-12-28T04:35:55;100482.66;;;18.55;
62976;BME280;49071;0.000;0.000;2023-12-28T04:38:56;100484.81;;;18.50;
62976;BME280;49071;0.000;0.000;2023-12-28T04:41:56;100464.34;;;18.44;
62976;BME280;49071;0.000;0.000;2023-12-28T04:44:56;100446.25;;;18.41;
62976;BME280;49071;0.000;0.000;2023-12-28T04:47:57;100456.28;;;18.36;
62976;BME280;49071;0.000;0.000;2023-12-28T04:50:57;100462.72;;;18.32;
62976;BME280;49071;0.000;0.000;2023-12-28T04:53:57;100458.72;;;18.28;
62976;BME280;49071;0.000;0.000;2023-12-28T04:56:57;100461.81;;;18.22;
62976;BME280;49071;0.000;0.000;2023-12-28T04:59:57;100471.81;;;18.17;
62976;BME280;49071;0.000;0.000;2023-12-28T05:02:57;100470.41;;;18.14;
62976;BME280;49071;0.000;0.000;2023-12-28T05:05:57;100481.13;;;18.11;
62976;BME280;49071;0.000;0.000;2023-12-28T05:08:58;100488.56;;;18.06;
62976;BME280;49071;0.000;0.000;2023-12-28T05:11:58;100486.88;;;18.05;
62976;BME280;49071;0.000;0.000;2023-12-28T05:14:58;100488.56;;;18.06;
62976;BME280;49071;0.000;0.000;2023-12-28T05:17:58;100499.59;;;18.09;
62976;BME280;49071;0.000;0.000;2023-12-28T05:20:58;100507.06;;;18.14;
62976;BME280;49071;0.000;0.000;2023-12-28T05:23:59;100495.28;;;18.19;
62976;BME280;49071;0.000;0.000;2023-12-28T05:26:59;100512.16;;;18.26;
62976;BME280;49071;0.000;0.000;2023-12-28T05:30:00;100526.31;;;18.34;
62976;BME280;49071;0.000;0.000;2023-12-28T05:33:00;100501.16;;;18.43;
62976;BME280;49071;0.000;0.000;2023-12-28T05:36:00;100507.41;;;18.51;
62976;BME280;49071;0.000;0.000;2023-12-28T05:39:00;100506.81;;;18.58;
62976;BME280;49071;0.000;0.000;2023-12-28T05:42:00;100515.69;;;18.67;
62976;BME280;49071;0.000;0.000;2023-12-28T05:45:01;100516.59;;;18.76;
62976;BME280;49071;0.000;0.000;2023-12-28T05:48:01;100508.00;;;18.85;
62976;BME280;49071;0.000;0.000;2023-12-28T05:51:01;100508.91;;;18.95;
62976;BME280;49071;0.000;0.000;2023-12-28T05:54:01;100506.97;;;18.97;
62976;BME280;49071;0.000;0.000;2023-12-28T05:57:01;100508.75;;;18.97;
62976;BME280;49071;0.000;0.000;2023-12-28T06:00:02;100511.66;;;18.94;
62976;BME280;49071;0.000;0.000;2023-12-28T06:03:04;100523.47;;;18.88;
62976;BME280;49071;0.000;0.000;2023-12-28T06:06:04;100521.34;;;18.82;
62976;BME280;49071;0.000;0.000;2023-12-28T06:09:04;100522.53;;;18.78;
62976;BME280;49071;0.000;0.000;2023-12-28T06:12:05;100534.25;;;18.74;
62976;BME280;49071;0.000;0.000;2023-12-28T06:15:05;100539.97;;;18.69;
62976;BME280;49071;0.000;0.000;2023-12-28T06:18:06;100550.97;;;18.63;
62976;BME280;49071;0.000;0.000;2023-12-28T06:21:07;100557.41;;;18.59;
62976;BME280;49071;0.000;0.000;2023-12-28T06:24:07;100544.00;;;18.52;
62976;BME280;49071;0.000;0.000;2023-12-28T06:27:08;100563.66;;;18.47;
62976;BME280;49071;0.000;0.000;2023-12-28T06:30:08;100567.47;;;18.43;
62976;BME280;49071;0.000;0.000;2023-12-28T06:33:08;100572.13;;;18.40;
62976;BME280;49071;0.000;0.000;2023-12-28T06:36:08;100579.38;;;18.36;
62976;BME280;49071;0.000;0.000;2023-12-28T06:39:09;100581.56;;;18.31;
62976;BME280;49071;0.000;0.000;2023-12-28T06:42:09;100587.13;;;18.27;
62976;BME280;49071;0.000;0.000;2023-12-28T06:45:09;100580.00;;;18.29;
62976;BME280;49071;0.000;0.000;2023-12-28T06:48:10;100589.41;;;18.31;
62976;BME280;49071;0.000;0.000;2023-12-28T06:51:15;100581.16;;;18.36;
62976;BME280;49071;0.000;0.000;2023-12-28T06:54:15;100580.56;;;18.43;
62976;BME280;49071;0.000;0.000;2023-12-28T06:57:16;100591.25;;;18.51;
62976;BME280;49071;0.000;0.000;2023-12-28T07:00:16;100587.91;;;18.60;
62976;BME280;49071;0.000;0.000;2023-12-28T07:03:16;100597.63;;;18.69;
62976;BME280;49071;0.000;0.000;2023-12-28T07:06:17;100583.78;;;18.77;
62976;BME280;49071;0.000;0.000;2023-12-28T07:09:17;100588.28;;;18.86;
62976;BME280;49071;0.000;0.000;2023-12-28T07:12:18;100582.06;;;18.98;
62976;BME280;49071;0.000;0.000;2023-12-28T07:15:20;100584.88;;;19.06;
62976;BME280;49071;0.000;0.000;2023-12-28T07:18:20;100588.41;;;19.16;
62976;BME280;49071;0.000;0.000;2023-12-28T07:21:20;100582.38;;;19.25;
62976;BME280;49071;0.000;0.000;2023-12-28T07:24:20;100578.97;;;19.33;
62976;BME280;49071;0.000;0.000;2023-12-28T07:27:21;100579.03;;;19.43;
62976;BME280;49071;0.000;0.000;2023-12-28T07:30:21;100586.69;;;19.55;
62976;BME280;49071;0.000;0.000;2023-12-28T07:33:21;100586.91;;;19.63;
62976;BME280;49071;0.000;0.000;2023-12-28T07:36:21;100600.94;;;19.73;
62976;BME280;49071;0.000;0.000;2023-12-28T07:39:21;100600.28;;;19.80;
62976;BME280;49071;0.000;0.000;2023-12-28T07:42:22;100607.94;;;19.92;
62976;BME280;49071;0.000;0.000;2023-12-28T07:45:22;100608.91;;;20.01;
62976;BME280;49071;0.000;0.000;2023-12-28T07:48:24;100612.69;;;20.08;
62976;BME280;49071;0.000;0.000;2023-12-28T07:51:24;100620.69;;;20.06;
62976;BME280;49071;0.000;0.000;2023-12-28T07:54:24;100623.75;;;20.02;
62976;BME280;49071;0.000;0.000;2023-12-28T07:57:25;100624.38;;;19.94;
62976;BME280;49071;0.000;0.000;2023-12-28T08:00:25;100630.41;;;19.86;
62976;BME280;49071;0.000;0.000;2023-12-28T08:03:25;100631.22;;;19.77;
62976;BME280;49071;0.000;0.000;2023-12-28T08:06:25;100635.53;;;19.67;
62976;BME280;49071;0.000;0.000;2023-12-28T08:09:25;100634.66;;;19.57;
62976;BME280;49071;0.000;0.000;2023-12-28T08:12:25;100633.94;;;19.55;
62976;BME280;49071;0.000;0.000;2023-12-28T08:15:27;100636.66;;;19.44;
62976;BME280;49071;0.000;0.000;2023-12-28T08:18:27;100635.25;;;19.40;
62976;BME280;49071;0.000;0.000;2023-12-28T08:21:27;100639.53;;;19.41;
62976;BME280;49071;0.000;0.000;2023-12-28T08:24:27;100636.50;;;19.46;
62976;BME280;49071;0.000;0.000;2023-12-28T08:27:28;100636.25;;;19.49;
62976;BME280;49071;0.000;0.000;2023-12-28T08:30:28;100634.66;;;19.57;
62976;BME280;49071;0.000;0.000;2023-12-28T08:33:28;100635.22;;;19.61;
62976;BME280;49071;0.000;0.000;2023-12-28T08:36:28;100650.44;;;19.66;
62976;BME280;49071;0.000;0.000;2023-12-28T08:39:29;100647.22;;;19.74;
62976;BME280;49071;0.000;0.000;2023-12-28T08:42:29;100647.53;;;19.80;
62976;BME280;49071;0.000;0.000;2023-12-28T08:45:29;100653.09;;;19.87;
62976;BME280;49071;0.000;0.000;2023-12-28T08:48:30;100669.72;;;19.96;
62976;BME280;49071;0.000;0.000;2023-12-28T08:51:30;100663.94;;;20.02;
62976;BME280;49071;0.000;0.000;2023-12-28T08:54:30;100672.59;;;20.14;
62976;BME280;49071;0.000;0.000;2023-12-28T08:57:30;100673.31;;;20.25;
62976;BME280;49071;0.000;0.000;2023-12-28T09:00:31;100678.47;;;20.36;
62976;BME280;49071;0.000;0.000;2023-12-28T09:03:31;100682.63;;;20.38;
62976;BME280;49071;0.000;0.000;2023-12-28T09:06:31;100687.06;;;20.38;
62976;BME280;49071;0.000;0.000;2023-12-28T09:09:31;100688.28;;;20.34;
62976;BME280;49071;0.000;0.000;2023-12-28T09:12:32;100698.75;;;20.24;
62976;BME280;49071;0.000;0.000;2023-12-28T09:15:32;100692.63;;;20.15;
62976;BME280;49071;0.000;0.000;2023-12-28T09:18:33;100692.59;;;20.05;
62976;BME280;49071;0.000;0.000;2023-12-28T09:21:34;100691.72;;;19.95;
62976;BME280;49071;0.000;0.000;2023-12-28T09:24:34;100690.69;;;19.87;
62976;BME280;49071;0.000;0.000;2023-12-28T09:27:34;100699.22;;;19.80;
62976;BME280;49071;0.000;0.000;2023-12-28T09:30:34;100692.69;;;19.74;
62976;BME280;49071;0.000;0.000;2023-12-28T09:33:34;100700.47;;;19.65;
62976;BME280;49071;0.000;0.000;2023-12-28T09:36:35;100687.84;;;19.59;
62976;BME280;49071;0.000;0.000;2023-12-28T09:39:35;100701.59;;;19.52;
62976;BME280;49071;0.000;0.000;2023-12-28T09:42:40;100700.59;;;19.43;
62976;BME280;49071;0.000;0.000;2023-12-28T09:45:46;100703.22;;;19.43;
62976;BME280;49071;0.000;0.000;2023-12-28T09:48:46;100703.72;;;19.37;
62976;BME280;49071;0.000;0.000;2023-12-28T09:51:47;100706.59;;;19.34;
62976;BME280;49071;0.000;0.000;2023-12-28T09:54:47;100702.28;;;19.33;
62976;BME280;49071;0.000;0.000;2023-12-28T09:57:47;100709.91;;;19.36;
62976;BME280;49071;0.000;0.000;2023-12-28T10:00:48;100693.91;;;19.39;
62976;BME280;49071;0.000;0.000;2023-12-28T10:03:49;100693.41;;;19.45;
62976;BME280;49071;0.000;0.000;2023-12-28T10:06:49;100684.09;;;19.52;
62976;BME280;49071;0.000;0.000;2023-12-28T10:09:50;100688.53;;;19.61;
62976;BME280;49071;0.000;0.000;2023-12-28T10:12:51;100681.84;;;19.68;
62976;BME280;49071;0.000;0.000;2023-12-28T10:15:51;100686.34;;;19.77;
62976;BME280;49071;0.000;0.000;2023-12-28T10:18:52;100683.06;;;19.84;
62976;BME280;49071;0.000;0.000;2023-12-28T10:21:52;100690.75;;;19.96;
62976;BME280;49071;0.000;0.000;2023-12-28T10:24:52;100676.41;;;20.10;
62976;BME280;49071;0.000;0.000;2023-12-28T10:27:52;100679.22;;;20.18;
62976;BME280;49071;0.000;0.000;2023-12-28T10:30:56;100677.66;;;20.35;
62976;BME280;49071;0.000;0.000;2023-12-28T10:33:59;100684.19;;;20.41;
62976;BME280;49071;0.000;0.000;2023-12-28T10:37:02;100685.72;;;20.52;
62976;BME280;49071;0.000;0.000;2023-12-28T10:40:05;100675.13;;;20.54;
62976;BME280;49071;0.000;0.000;2023-12-28T10:43:06;100660.88;;;20.56;
62976;BME280;49071;0.000;0.000;2023-12-28T10:46:08;100678.94;;;20.50;
62976;BME280;49071;0.000;0.000;2023-12-28T10:49:12;100667.44;;;20.42;
62976;BME280;49071;0.000;0.000;2023-12-28T10:52:13;100667.25;;;20.34;
62976;BME280;49071;0.000;0.000;2023-12-28T10:58:26;100661.81;;;20.17;
62976;BME280;49071;0.000;0.000;2023-12-28T11:01:30;100673.94;;;20.08;
62976;BME280;49071;0.000;0.000;2023-12-28T11:04:34;100667.56;;;20.01;
62976;BME280;49071;0.000;0.000;2023-12-28T11:07:37;100678.56;;;19.95;
62976;BME280;49071;0.000;0.000;2023-12-28T11:10:38;100667.50;;;19.92;
62976;BME280;49071;0.000;0.000;2023-12-28T11:13:38;100670.25;;;19.91;
62976;BME280;49071;0.000;0.000;2023-12-28T11:16:39;100671.06;;;19.91;
62976;BME280;49071;0.000;0.000;2023-12-28T11:19:40;100669.88;;;19.95;
62976;BME280;49071;0.000;0.000;2023-12-28T11:22:40;100659.94;;;19.98;
62976;BME280;49071;0.000;0.000;2023-12-28T11:25:41;100670.81;;;19.94;
62976;BME280;49071;0.000;0.000;2023-12-28T11:28:41;100673.28;;;19.86;
62976;BME280;49071;0.000;0.000;2023-12-28T11:31:42;100662.47;;;19.80;
62976;BME280;49071;0.000;0.000;2023-12-28T11:34:42;100662.00;;;19.75;
62976;BME280;49071;0.000;0.000;2023-12-28T11:37:46;100662.34;;;19.70;
62976;BME280;49071;0.000;0.000;2023-12-28T11:40:48;100659.31;;;19.65;
62976;BME280;49071;0.000;0.000;2023-12-28T11:43:54;100650.59;;;19.65;
62976;BME280;49071;0.000;0.000;2023-12-28T11:46:54;100651.28;;;19.67;
62976;BME280;49071;0.000;0.000;2023-12-28T11:50:05;100646.13;;;19.76;
62976;BME280;49071;0.000;0.000;2023-12-28T11:53:06;100639.78;;;19.79;
62976;BME280;49071;0.000;0.000;2023-12-28T11:56:06;100644.78;;;19.82;
62976;BME280;49071;0.000;0.000;2023-12-28T11:59:10;100646.63;;;19.91;
62976;BME280;49071;0.000;0.000;2023-12-28T12:02:10;100646.81;;;19.98;
62976;BME280;49071;0.000;0.000;2023-12-28T12:05:11;100640.06;;;20.05;
62976;BME280;49071;0.000;0.000;2023-12-28T12:08:12;100642.16;;;20.11;
62976;BME280;49071;0.000;0.000;2023-12-28T12:11:14;100655.19;;;20.22;
62976;BME280;49071;0.000;0.000;2023-12-28T12:14:14;100654.38;;;20.31;
62976;BME280;49071;0.000;0.000;2023-12-28T12:17:14;100645.06;;;20.47;
62976;BME280;49071;0.000;0.000;2023-12-28T12:20:14;100632.91;;;20.55;
62976;BME280;49071;0.000;0.000;2023-12-28T12:23:15;100633.63;;;20.57;
62976;BME280;49071;0.000;0.000;2023-12-28T12:26:17;100631.81;;;20.58;
62976;BME280;49071;0.000;0.000;2023-12-28T12:29:17;100629.59;;;20.53;
62976;BME280;49071;0.000;0.000;2023-12-28T12:32:18;100626.66;;;20.47;
62976;BME280;49071;0.000;0.000;2023-12-28T12:35:18;100620.41;;;20.39;
62976;BME280;49071;0.000;0.000;2023-12-28T12:38:21;100626.31;;;20.31;
62976;BME280;49071;0.000;0.000;2023-12-28T12:41:22;100617.59;;;20.31;
62976;BME280;49071;0.000;0.000;2023-12-28T12:44:23;100614.13;;;20.21;
62976;BME280;49071;0.000;0.000;2023-12-28T12:47:23;100618.50;;;20.11;
62976;BME280;49071;0.000;0.000;2023-12-28T12:50:23;100607.84;;;20.03;
62976;BME280;49071;0.000;0.000;2023-12-28T12:53:25;100597.84;;;19.97;
62976;BME280;49071;0.000;0.000;2023-12-28T12:56:32;100600.19;;;19.91;
62976;BME280;49071;0.000;0.000;2023-12-28T12:59:32;100598.06;;;19.85;
62976;BME280;49071;0.000;0.000;2023-12-28T13:02:33;100596.94;;;19.78;
62976;BME280;49071;0.000;0.000;2023-12-28T13:05:34;100600.06;;;19.72;
62976;BME280;49071;0.000;0.000;2023-12-28T13:08:34;100600.47;;;19.68;
62976;BME280;49071;0.000;0.000;2023-12-28T13:11:35;100604.03;;;19.67;
62976;BME280;49071;0.000;0.000;2023-12-28T13:14:35;100599.50;;;19.69;
62976;BME280;49071;0.000;0.000;2023-12-28T13:17:36;100604.13;;;19.76;
62976;BME280;49071;0.000;0.000;2023-12-28T13:20:36;100612.59;;;19.80;
62976;BME280;49071;0.000;0.000;2023-12-28T13:23:36;100607.75;;;19.85;
62976;BME280;49071;0.000;0.000;2023-12-28T13:26:37;100607.94;;;19.92;
62976;BME280;49071;0.000;0.000;2023-12-28T13:29:37;100610.03;;;19.98;
62976;BME280;49071;0.000;0.000;2023-12-28T13:32:37;100626.66;;;20.08;
62976;BME280;49071;0.000;0.000;2023-12-28T13:35:37;100622.25;;;20.18;
62976;BME280;49071;0.000;0.000;2023-12-28T13:38:37;100623.84;;;20.30;
62976;BME280;49071;0.000;0.000;2023-12-28T13:41:37;100616.78;;;20.40;
62976;BME280;49071;0.000;0.000;2023-12-28T13:44:38;100607.13;;;20.49;
62976;BME280;49071;0.000;0.000;2023-12-28T13:47:38;100617.38;;;20.52;
62976;BME280;49071;0.000;0.000;2023-12-28T13:50:38;100612.13;;;20.52;
62976;BME280;49071;0.000;0.000;2023-12-28T13:53:38;100617.63;;;20.49;
62976;BME280;49071;0.000;0.000;2023-12-28T13:56:40;100618.47;;;20.41;
62976;BME280;49071;0.000;0.000;2023-12-28T13:59:41;100610.28;;;20.44;
62976;BME280;49071;0.000;0.000;2023-12-28T14:02:41;100623.44;;;20.44;
62976;BME280;49071;0.000;0.000;2023-12-28T14:05:42;100613.75;;;20.35;
62976;BME280;49071;0.000;0.000;2023-12-28T14:08:43;100623.38;;;20.25;
62976;BME280;49071;0.000;0.000;2023-12-28T14:11:43;100622.53;;;20.15;
62976;BME280;49071;0.000;0.000;2023-12-28T14:14:43;100629.13;;;20.10;
62976;BME280;49071;0.000;0.000;2023-12-28T14:17:43;100635.88;;;20.03;
62976;BME280;49071;0.000;0.000;2023-12-28T14:20:43;100638.09;;;19.98;
62976;BME280;49071;0.000;0.000;2023-12-28T14:23:44;100632.25;;;19.94;
62976;BME280;49071;0.000;0.000;2023-12-28T14:26:44;100634.72;;;19.87;
62976;BME280;49071;0.000;0.000;2023-12-28T14:29:45;100628.19;;;19.81;
62976;BME280;49071;0.000;0.000;2023-12-28T14:32:45;100640.28;;;19.73;
62976;BME280;49071;0.000;0.000;2023-12-28T14:35:45;100644.13;;;19.69;
62976;BME280;49071;0.000;0.000;2023-12-28T14:38:46;100650.03;;;19.62;
62976;BME280;49071;0.000;0.000;2023-12-28T14:41:46;100662.56;;;19.58;
62976;BME280;49071;0.000;0.000;2023-12-28T14:44:46;100648.50;;;19.59;
62976;BME280;49071;0.000;0.000;2023-12-28T14:47:47;100653.47;;;19.62;
62976;BME280;49071;0.000;0.000;2023-12-28T14:50:47;100644.25;;;19.67;
62976;BME280;49071;0.000;0.000;2023-12-28T14:53:48;100639.44;;;19.72;
62976;BME280;49071;0.000;0.000;2023-12-28T14:56:48;100645.75;;;19.81;
62976;BME280;49071;0.000;0.000;2023-12-28T14:59:48;100642.59;;;19.87;
62976;BME280;49071;0.000;0.000;2023-12-28T15:02:48;100637.25;;;19.97;
62976;BME280;49071;0.000;0.000;2023-12-28T15:05:50;100647.09;;;20.05;
62976;BME280;49071;0.000;0.000;2023-12-28T15:08:50;100646.88;;;20.17;
62976;BME280;49071;0.000;0.000;2023-12-28T15:11:51;100632.81;;;20.27;
62976;BME280;49071;0.000;0.000;2023-12-28T15:14:51;100643.06;;;20.40;
62976;BME280;49071;0.000;0.000;2023-12-28T15:17:51;100640.13;;;20.53;
62976;BME280;49071;0.000;0.000;2023-12-28T15:20:52;100635.97;;;20.60;
62976;BME280;49071;0.000;0.000;2023-12-28T15:23:52;100639.03;;;20.65;
62976;BME280;49071;0.000;0.000;2023-12-28T15:26:52;100633.19;;;20.62;
62976;BME280;49071;0.000;0.000;2023-12-28T15:29:52;100633.19;;;20.62;
62976;BME280;49071;0.000;0.000;2023-12-28T15:32:53;100625.19;;;20.63;
62976;BME280;49071;0.000;0.000;2023-12-28T15:35:53;100616.19;;;20.56;
62976;BME280;49071;0.000;0.000;2023-12-28T15:38:53;100627.75;;;20.45;
62976;BME280;49071;0.000;0.000;2023-12-28T15:41:53;100624.94;;;20.37;
62976;BME280;49071;0.000;0.000;2023-12-28T15:44:54;100630.34;;;20.35;
62976;BME280;49071;0.000;0.000;2023-12-28T15:47:54;100633.91;;;20.25;
62976;BME280;49071;0.000;0.000;2023-12-28T15:50:54;100622.53;;;20.15;
62976;BME280;49071;0.000;0.000;2023-12-28T15:53:54;100630.25;;;20.07;
62976;BME280;49071;0.000;0.000;2023-12-28T15:56:55;100623.03;;;20.00;
62976;BME280;49071;0.000;0.000;2023-12-28T15:59:55;100620.94;;;19.94;
62976;BME280;49071;0.000;0.000;2023-12-28T16:02:58;100625.88;;;19.88;
62976;BME280;49071;0.000;0.000;2023-12-28T16:05:58;100624.59;;;19.82;
62976;BME280;49071;0.000;0.000;2023-12-28T16:08:59;100623.34;;;19.77;
62976;BME280;49071;0.000;0.000;2023-12-28T16:12:00;100624.53;;;19.73;
62976;BME280;49071;0.000;0.000;2023-12-28T16:15:00;100622.16;;;19.70;
62976;BME280;49071;0.000;0.000;2023-12-28T16:18:00;100615.66;;;19.64;
62976;BME280;49071;0.000;0.000;2023-12-28T16:21:01;100609.81;;;19.61;
62976;BME280;49071;0.000;0.000;2023-12-28T16:24:01;100615.91;;;19.62;
62976;BME280;49071;0.000;0.000;2023-12-28T16:27:01;100610.97;;;19.68;
62976;BME280;49071;0.000;0.000;2023-12-28T16:30:02;100614.06;;;19.73;
62976;BME280;49071;0.000;0.000;2023-12-28T16:33:02;100609.09;;;19.79;
62976;BME280;49071;0.000;0.000;2023-12-28T16:36:02;100603.91;;;19.89;
62976;BME280;49071;0.000;0.000;2023-12-28T16:39:02;100607.28;;;20.00;
62976;BME280;49071;0.000;0.000;2023-12-28T16:42:03;100596.69;;;20.11;
62976;BME280;49071;0.000;0.000;2023-12-28T16:45:03;100601.97;;;20.20;
62976;BME280;49071;0.000;0.000;2023-12-28T16:48:04;100604.88;;;20.26;
62976;BME280;49071;0.000;0.000;2023-12-28T16:51:04;100591.91;;;20.44;
62976;BME280;49071;0.000;0.000;2023-12-28T16:54:05;100597.25;;;20.62;
62976;BME280;49071;0.000;0.000;2023-12-28T16:57:05;100599.19;;;20.70;
62976;BME280;49071;0.000;0.000;2023-12-28T17:00:06;100590.31;;;20.80;
62976;BME280;49071;0.000;0.000;2023-12-28T17:03:07;100597.66;;;20.86;
62976;BME280;49071;0.000;0.000;2023-12-28T17:06:08;100600.56;;;20.83;
62976;BME280;49071;0.000;0.000;2023-12-28T17:09:09;100607.78;;;20.81;
62976;BME280;49071;0.000;0.000;2023-12-28T17:12:13;100606.94;;;20.71;